sensor_id;sensor_type;location;lat;lon;timestamp;P1;durP1;ratioP1;P2;durP2;ratioP2
13163;SDS011;6647;53.688;10.746;2022-10-16T00:01:05;7.30;;;3.42;;
13163;SDS011;6647;53.688;10.746;2022-10-16T00:02:31;3.78;;;3.25;;
13163;SDS011;6647;53.688;10.746;2022-10-16T00:03:52;8.93;;;3.47;;
13163;SDS011;6647;53.688;10.746;2022-10-16T00:05:13;6.20;;;3.58;;
13163;SDS011;6647;53.688;10.746;2022-10-16T00:06:34;6.95;;;3.08;;
13163;SDS011;6647;53.688;10.746;2022-10-16T00:07:55;5.97;;;3.30;;
13163;SDS011;6647;53.688;10.746;2022-10-16T00:09:16;3.60;;;3.30;;
13163;SDS011;6647;53.688;10.746;2022-10-16T00:10:37;4.32;;;3.30;;
13163;SDS011;6647;53.688;10.746;2022-10-16T00:11:58;4.72;;;3.33;;
13163;SDS011;6647;53.688;10.746;2022-10-16T00:13:19;3.58;;;3.10;;
13163;SDS011;6647;53.688;10.746;2022-10-16T00:14:41;5.93;;;3.90;;
13163;SDS011;6647;53.688;10.746;2022-10-16T00:16:04;3.28;;;3.03;;
13163;SDS011;6647;53.688;10.746;2022-10-16T00:17:25;3.92;;;3.60;;
13163;SDS011;6647;53.688;10.746;2022-10-16T00:18:46;4.15;;;3.30;;
13163;SDS011;6647;53.688;10.746;2022-10-16T00:20:07;6.95;;;4.10;;
13163;SDS011;6647;53.688;10.746;2022-10-16T00:21:28;5.15;;;4.30;;
13163;SDS011;6647;53.688;10.746;2022-10-16T00:22:50;5.57;;;4.82;;
13163;SDS011;6647;53.688;10.746;2022-10-16T00:24:11;5.80;;;4.10;;
13163;SDS011;6647;53.688;10.746;2022-10-16T00:25:32;7.20;;;4.90;;
13163;SDS011;6647;53.688;10.746;2022-10-16T00:26:53;6.55;;;4.55;;
13163;SDS011;6647;53.688;10.746;2022-10-16T00:28:14;4.80;;;4.35;;
13163;SDS011;6647;53.688;10.746;2022-10-16T00:29:34;6.90;;;5.47;;
13163;SDS011;6647;53.688;10.746;2022-10-16T00:30:55;10.35;;;5.70;;
13163;SDS011;6647;53.688;10.746;2022-10-16T00:32:18;5.85;;;4.82;;
13163;SDS011;6647;53.688;10.746;2022-10-16T00:33:40;7.93;;;5.38;;
13163;SDS011;6647;53.688;10.746;2022-10-16T00:35:01;7.80;;;5.68;;
13163;SDS011;6647;53.688;10.746;2022-10-16T00:36:25;7.20;;;5.72;;
13163;SDS011;6647;53.688;10.746;2022-10-16T00:37:46;9.60;;;6.20;;
13163;SDS011;6647;53.688;10.746;2022-10-16T00:39:07;8.38;;;6.60;;
13163;SDS011;6647;53.688;10.746;2022-10-16T00:40:28;10.40;;;5.80;;
13163;SDS011;6647;53.688;10.746;2022-10-16T00:41:49;6.30;;;5.70;;
13163;SDS011;6647;53.688;10.746;2022-10-16T00:43:14;13.63;;;6.38;;
13163;SDS011;6647;53.688;10.746;2022-10-16T00:45:01;7.00;;;6.30;;
13163;SDS011;6647;53.688;10.746;2022-10-16T00:47:49;7.68;;;6.05;;
13163;SDS011;6647;53.688;10.746;2022-10-16T00:49:13;6.82;;;6.00;;
13163;SDS011;6647;53.688;10.746;2022-10-16T00:50:36;12.25;;;6.35;;
13163;SDS011;6647;53.688;10.746;2022-10-16T00:51:57;6.90;;;6.15;;
13163;SDS011;6647;53.688;10.746;2022-10-16T00:53:18;9.00;;;6.70;;
13163;SDS011;6647;53.688;10.746;2022-10-16T00:54:40;7.18;;;6.20;;
13163;SDS011;6647;53.688;10.746;2022-10-16T00:56:01;7.78;;;6.50;;
13163;SDS011;6647;53.688;10.746;2022-10-16T00:57:22;10.13;;;6.28;;
13163;SDS011;6647;53.688;10.746;2022-10-16T00:58:44;10.68;;;5.68;;
13163;SDS011;6647;53.688;10.746;2022-10-16T01:00:06;6.43;;;5.45;;
13163;SDS011;6647;53.688;10.746;2022-10-16T01:01:29;11.98;;;5.57;;
13163;SDS011;6647;53.688;10.746;2022-10-16T01:02:53;7.40;;;6.25;;
13163;SDS011;6647;53.688;10.746;2022-10-16T01:04:18;8.38;;;5.47;;
13163;SDS011;6647;53.688;10.746;2022-10-16T01:05:42;5.90;;;5.40;;
13163;SDS011;6647;53.688;10.746;2022-10-16T01:10:57;5.20;;;4.65;;
13163;SDS011;6647;53.688;10.746;2022-10-16T01:13:56;5.60;;;4.45;;
13163;SDS011;6647;53.688;10.746;2022-10-16T01:15:34;6.25;;;4.85;;
13163;SDS011;6647;53.688;10.746;2022-10-16T01:17:10;5.95;;;4.25;;
13163;SDS011;6647;53.688;10.746;2022-10-16T01:18:43;4.88;;;4.32;;
13163;SDS011;6647;53.688;10.746;2022-10-16T01:20:10;8.38;;;4.53;;
13163;SDS011;6647;53.688;10.746;2022-10-16T01:21:46;5.20;;;4.28;;
13163;SDS011;6647;53.688;10.746;2022-10-16T01:25:02;5.47;;;4.35;;
13163;SDS011;6647;53.688;10.746;2022-10-16T01:28:04;10.52;;;4.65;;
13163;SDS011;6647;53.688;10.746;2022-10-16T01:29:34;6.13;;;4.47;;
13163;SDS011;6647;53.688;10.746;2022-10-16T01:31:17;6.00;;;4.60;;
13163;SDS011;6647;53.688;10.746;2022-10-16T01:32:41;5.18;;;4.53;;
13163;SDS011;6647;53.688;10.746;2022-10-16T01:34:12;5.10;;;4.40;;
13163;SDS011;6647;53.688;10.746;2022-10-16T01:35:37;5.32;;;4.50;;
13163;SDS011;6647;53.688;10.746;2022-10-16T01:37:05;5.97;;;4.35;;
13163;SDS011;6647;53.688;10.746;2022-10-16T01:38:35;5.00;;;4.30;;
13163;SDS011;6647;53.688;10.746;2022-10-16T01:39:58;6.55;;;4.07;;
13163;SDS011;6647;53.688;10.746;2022-10-16T01:41:26;7.15;;;4.30;;
13163;SDS011;6647;53.688;10.746;2022-10-16T01:42:55;8.10;;;4.20;;
13163;SDS011;6647;53.688;10.746;2022-10-16T01:44:22;6.15;;;4.30;;
13163;SDS011;6647;53.688;10.746;2022-10-16T01:45:48;6.95;;;4.25;;
13163;SDS011;6647;53.688;10.746;2022-10-16T01:47:10;5.70;;;4.15;;
13163;SDS011;6647;53.688;10.746;2022-10-16T01:48:33;5.18;;;4.68;;
13163;SDS011;6647;53.688;10.746;2022-10-16T01:49:55;10.82;;;4.88;;
13163;SDS011;6647;53.688;10.746;2022-10-16T01:51:20;9.57;;;4.38;;
13163;SDS011;6647;53.688;10.746;2022-10-16T01:52:44;7.78;;;4.55;;
13163;SDS011;6647;53.688;10.746;2022-10-16T01:54:08;8.15;;;4.40;;
13163;SDS011;6647;53.688;10.746;2022-10-16T01:55:32;8.30;;;4.35;;
13163;SDS011;6647;53.688;10.746;2022-10-16T01:56:56;5.07;;;3.97;;
13163;SDS011;6647;53.688;10.746;2022-10-16T01:58:18;5.57;;;4.60;;
13163;SDS011;6647;53.688;10.746;2022-10-16T01:59:41;4.82;;;4.43;;
13163;SDS011;6647;53.688;10.746;2022-10-16T02:01:09;3.90;;;3.50;;
13163;SDS011;6647;53.688;10.746;2022-10-16T02:02:33;4.75;;;3.90;;
13163;SDS011;6647;53.688;10.746;2022-10-16T02:03:55;6.25;;;4.13;;
13163;SDS011;6647;53.688;10.746;2022-10-16T02:06:59;5.82;;;4.55;;
13163;SDS011;6647;53.688;10.746;2022-10-16T02:08:21;12.13;;;4.53;;
13163;SDS011;6647;53.688;10.746;2022-10-16T02:09:44;7.85;;;4.28;;
13163;SDS011;6647;53.688;10.746;2022-10-16T02:11:05;5.22;;;3.92;;
13163;SDS011;6647;53.688;10.746;2022-10-16T02:12:31;5.18;;;3.85;;
13163;SDS011;6647;53.688;10.746;2022-10-16T02:13:55;9.15;;;4.22;;
13163;SDS011;6647;53.688;10.746;2022-10-16T02:15:21;6.25;;;3.92;;
13163;SDS011;6647;53.688;10.746;2022-10-16T02:16:43;4.35;;;3.88;;
13163;SDS011;6647;53.688;10.746;2022-10-16T02:18:06;3.90;;;3.53;;
13163;SDS011;6647;53.688;10.746;2022-10-16T02:19:27;5.75;;;4.07;;
13163;SDS011;6647;53.688;10.746;2022-10-16T02:20:51;5.55;;;3.90;;
13163;SDS011;6647;53.688;10.746;2022-10-16T02:22:20;4.32;;;3.45;;
13163;SDS011;6647;53.688;10.746;2022-10-16T02:25:58;5.30;;;3.45;;
13163;SDS011;6647;53.688;10.746;2022-10-16T02:28:55;7.32;;;3.60;;
13163;SDS011;6647;53.688;10.746;2022-10-16T02:30:25;8.35;;;3.88;;
13163;SDS011;6647;53.688;10.746;2022-10-16T02:31:52;3.60;;;3.28;;
13163;SDS011;6647;53.688;10.746;2022-10-16T02:33:18;9.75;;;2.90;;
13163;SDS011;6647;53.688;10.746;2022-10-16T02:34:41;5.50;;;3.85;;
13163;SDS011;6647;53.688;10.746;2022-10-16T02:36:03;4.80;;;3.22;;
13163;SDS011;6647;53.688;10.746;2022-10-16T02:37:25;3.75;;;2.90;;
13163;SDS011;6647;53.688;10.746;2022-10-16T02:38:47;3.78;;;3.35;;
13163;SDS011;6647;53.688;10.746;2022-10-16T02:40:08;4.03;;;3.13;;
13163;SDS011;6647;53.688;10.746;2022-10-16T02:41:30;6.32;;;3.35;;
13163;SDS011;6647;53.688;10.746;2022-10-16T02:42:52;6.60;;;3.40;;
13163;SDS011;6647;53.688;10.746;2022-10-16T02:44:14;5.20;;;3.40;;
13163;SDS011;6647;53.688;10.746;2022-10-16T02:45:35;3.58;;;2.95;;
13163;SDS011;6647;53.688;10.746;2022-10-16T02:46:56;5.35;;;3.17;;
13163;SDS011;6647;53.688;10.746;2022-10-16T02:48:16;7.07;;;3.75;;
13163;SDS011;6647;53.688;10.746;2022-10-16T02:49:37;7.53;;;3.45;;
13163;SDS011;6647;53.688;10.746;2022-10-16T02:50:58;5.90;;;3.50;;
13163;SDS011;6647;53.688;10.746;2022-10-16T02:52:19;3.90;;;3.60;;
13163;SDS011;6647;53.688;10.746;2022-10-16T02:53:40;6.97;;;3.10;;
13163;SDS011;6647;53.688;10.746;2022-10-16T02:55:01;4.53;;;3.80;;
13163;SDS011;6647;53.688;10.746;2022-10-16T02:56:22;4.93;;;3.42;;
13163;SDS011;6647;53.688;10.746;2022-10-16T02:57:44;6.00;;;3.17;;
13163;SDS011;6647;53.688;10.746;2022-10-16T02:59:05;2.90;;;2.63;;
13163;SDS011;6647;53.688;10.746;2022-10-16T03:00:25;3.42;;;3.10;;
13163;SDS011;6647;53.688;10.746;2022-10-16T03:01:46;6.18;;;3.60;;
13163;SDS011;6647;53.688;10.746;2022-10-16T03:03:07;7.90;;;3.65;;
13163;SDS011;6647;53.688;10.746;2022-10-16T03:04:28;2.97;;;2.55;;
13163;SDS011;6647;53.688;10.746;2022-10-16T03:05:52;3.85;;;2.75;;
13163;SDS011;6647;53.688;10.746;2022-10-16T03:07:13;5.70;;;2.40;;
13163;SDS011;6647;53.688;10.746;2022-10-16T03:08:33;5.70;;;2.70;;
13163;SDS011;6647;53.688;10.746;2022-10-16T03:09:54;4.47;;;3.08;;
13163;SDS011;6647;53.688;10.746;2022-10-16T03:11:15;3.33;;;2.53;;
13163;SDS011;6647;53.688;10.746;2022-10-16T03:12:36;5.75;;;3.15;;
13163;SDS011;6647;53.688;10.746;2022-10-16T03:13:57;5.82;;;2.70;;
13163;SDS011;6647;53.688;10.746;2022-10-16T03:15:18;7.57;;;2.80;;
13163;SDS011;6647;53.688;10.746;2022-10-16T03:16:39;3.38;;;2.83;;
13163;SDS011;6647;53.688;10.746;2022-10-16T03:17:59;5.18;;;3.13;;
13163;SDS011;6647;53.688;10.746;2022-10-16T03:19:20;7.57;;;2.63;;
13163;SDS011;6647;53.688;10.746;2022-10-16T03:20:44;4.57;;;2.22;;
13163;SDS011;6647;53.688;10.746;2022-10-16T03:22:05;6.43;;;2.70;;
13163;SDS011;6647;53.688;10.746;2022-10-16T03:23:26;3.78;;;2.63;;
13163;SDS011;6647;53.688;10.746;2022-10-16T03:24:48;2.55;;;2.35;;
13163;SDS011;6647;53.688;10.746;2022-10-16T03:26:09;3.17;;;2.00;;
13163;SDS011;6647;53.688;10.746;2022-10-16T03:27:30;3.53;;;2.33;;
13163;SDS011;6647;53.688;10.746;2022-10-16T03:28:50;2.40;;;2.20;;
13163;SDS011;6647;53.688;10.746;2022-10-16T03:30:11;2.97;;;2.67;;
13163;SDS011;6647;53.688;10.746;2022-10-16T03:31:32;5.50;;;2.70;;
13163;SDS011;6647;53.688;10.746;2022-10-16T03:32:53;3.50;;;1.92;;
13163;SDS011;6647;53.688;10.746;2022-10-16T03:34:14;5.13;;;2.60;;
13163;SDS011;6647;53.688;10.746;2022-10-16T03:35:35;4.40;;;2.05;;
13163;SDS011;6647;53.688;10.746;2022-10-16T03:36:56;2.55;;;1.70;;
13163;SDS011;6647;53.688;10.746;2022-10-16T03:38:17;3.08;;;2.25;;
13163;SDS011;6647;53.688;10.746;2022-10-16T03:39:38;4.70;;;1.85;;
13163;SDS011;6647;53.688;10.746;2022-10-16T03:40:59;6.38;;;2.30;;
13163;SDS011;6647;53.688;10.746;2022-10-16T03:42:19;2.90;;;1.63;;
13163;SDS011;6647;53.688;10.746;2022-10-16T03:43:40;3.30;;;1.98;;
13163;SDS011;6647;53.688;10.746;2022-10-16T03:45:01;4.90;;;1.85;;
13163;SDS011;6647;53.688;10.746;2022-10-16T03:46:23;6.28;;;1.90;;
13163;SDS011;6647;53.688;10.746;2022-10-16T03:47:43;1.60;;;1.50;;
13163;SDS011;6647;53.688;10.746;2022-10-16T03:49:04;3.80;;;2.10;;
13163;SDS011;6647;53.688;10.746;2022-10-16T03:50:25;1.80;;;1.70;;
13163;SDS011;6647;53.688;10.746;2022-10-16T03:51:46;5.03;;;1.52;;
13163;SDS011;6647;53.688;10.746;2022-10-16T03:53:07;5.72;;;2.45;;
13163;SDS011;6647;53.688;10.746;2022-10-16T03:54:28;4.35;;;1.77;;
13163;SDS011;6647;53.688;10.746;2022-10-16T03:55:49;3.05;;;2.05;;
13163;SDS011;6647;53.688;10.746;2022-10-16T03:57:09;3.50;;;2.30;;
13163;SDS011;6647;53.688;10.746;2022-10-16T03:58:30;4.97;;;1.75;;
13163;SDS011;6647;53.688;10.746;2022-10-16T03:59:51;3.88;;;2.10;;
13163;SDS011;6647;53.688;10.746;2022-10-16T04:01:12;4.00;;;1.92;;
13163;SDS011;6647;53.688;10.746;2022-10-16T04:02:33;5.55;;;2.00;;
13163;SDS011;6647;53.688;10.746;2022-10-16T04:03:56;5.40;;;1.50;;
13163;SDS011;6647;53.688;10.746;2022-10-16T04:05:17;6.97;;;2.20;;
13163;SDS011;6647;53.688;10.746;2022-10-16T04:06:38;2.85;;;1.63;;
13163;SDS011;6647;53.688;10.746;2022-10-16T04:08:02;2.90;;;1.90;;
13163;SDS011;6647;53.688;10.746;2022-10-16T04:09:23;2.25;;;1.60;;
13163;SDS011;6647;53.688;10.746;2022-10-16T04:10:44;2.92;;;1.92;;
13163;SDS011;6647;53.688;10.746;2022-10-16T04:12:05;7.28;;;1.83;;
13163;SDS011;6647;53.688;10.746;2022-10-16T04:13:26;4.60;;;1.98;;
13163;SDS011;6647;53.688;10.746;2022-10-16T04:14:47;2.88;;;2.03;;
13163;SDS011;6647;53.688;10.746;2022-10-16T04:16:08;4.28;;;1.52;;
13163;SDS011;6647;53.688;10.746;2022-10-16T04:17:29;3.38;;;1.65;;
13163;SDS011;6647;53.688;10.746;2022-10-16T04:18:50;5.03;;;1.73;;
13163;SDS011;6647;53.688;10.746;2022-10-16T04:20:10;3.58;;;2.25;;
13163;SDS011;6647;53.688;10.746;2022-10-16T04:21:31;9.38;;;1.80;;
13163;SDS011;6647;53.688;10.746;2022-10-16T04:22:52;5.70;;;2.22;;
13163;SDS011;6647;53.688;10.746;2022-10-16T04:24:13;3.03;;;1.98;;
13163;SDS011;6647;53.688;10.746;2022-10-16T04:25:34;3.63;;;1.90;;
13163;SDS011;6647;53.688;10.746;2022-10-16T04:26:55;4.20;;;2.00;;
13163;SDS011;6647;53.688;10.746;2022-10-16T04:28:15;6.15;;;2.65;;
13163;SDS011;6647;53.688;10.746;2022-10-16T04:29:36;5.90;;;1.60;;
13163;SDS011;6647;53.688;10.746;2022-10-16T04:30:57;8.40;;;1.67;;
13163;SDS011;6647;53.688;10.746;2022-10-16T04:32:18;4.40;;;1.90;;
13163;SDS011;6647;53.688;10.746;2022-10-16T04:33:40;4.53;;;1.70;;
13163;SDS011;6647;53.688;10.746;2022-10-16T04:35:03;3.28;;;1.73;;
13163;SDS011;6647;53.688;10.746;2022-10-16T04:36:24;5.72;;;1.85;;
13163;SDS011;6647;53.688;10.746;2022-10-16T04:37:45;2.58;;;1.42;;
13163;SDS011;6647;53.688;10.746;2022-10-16T04:39:06;3.88;;;1.48;;
13163;SDS011;6647;53.688;10.746;2022-10-16T04:40:26;3.65;;;1.70;;
13163;SDS011;6647;53.688;10.746;2022-10-16T04:41:47;4.95;;;2.05;;
13163;SDS011;6647;53.688;10.746;2022-10-16T04:43:08;3.55;;;1.70;;
13163;SDS011;6647;53.688;10.746;2022-10-16T04:44:29;3.38;;;1.80;;
13163;SDS011;6647;53.688;10.746;2022-10-16T04:45:50;4.57;;;1.63;;
13163;SDS011;6647;53.688;10.746;2022-10-16T04:47:12;7.88;;;1.65;;
13163;SDS011;6647;53.688;10.746;2022-10-16T04:48:33;10.45;;;1.50;;
13163;SDS011;6647;53.688;10.746;2022-10-16T04:49:54;4.03;;;1.70;;
13163;SDS011;6647;53.688;10.746;2022-10-16T04:51:15;3.25;;;1.95;;
13163;SDS011;6647;53.688;10.746;2022-10-16T04:52:36;3.20;;;1.33;;
13163;SDS011;6647;53.688;10.746;2022-10-16T04:53:56;5.55;;;1.30;;
13163;SDS011;6647;53.688;10.746;2022-10-16T04:55:17;4.38;;;1.55;;
13163;SDS011;6647;53.688;10.746;2022-10-16T04:56:38;5.18;;;1.50;;
13163;SDS011;6647;53.688;10.746;2022-10-16T04:58:11;4.93;;;2.00;;
13163;SDS011;6647;53.688;10.746;2022-10-16T04:59:32;3.30;;;1.48;;
13163;SDS011;6647;53.688;10.746;2022-10-16T05:00:53;4.07;;;1.50;;
13163;SDS011;6647;53.688;10.746;2022-10-16T05:02:14;4.15;;;1.70;;
13163;SDS011;6647;53.688;10.746;2022-10-16T05:03:35;5.90;;;1.70;;
13163;SDS011;6647;53.688;10.746;2022-10-16T05:04:55;2.83;;;1.80;;
13163;SDS011;6647;53.688;10.746;2022-10-16T05:06:16;1.52;;;1.42;;
13163;SDS011;6647;53.688;10.746;2022-10-16T05:07:37;2.35;;;1.60;;
13163;SDS011;6647;53.688;10.746;2022-10-16T05:08:58;1.73;;;1.63;;
13163;SDS011;6647;53.688;10.746;2022-10-16T05:10:19;3.88;;;1.52;;
13163;SDS011;6647;53.688;10.746;2022-10-16T05:11:40;1.80;;;1.42;;
13163;SDS011;6647;53.688;10.746;2022-10-16T05:13:01;5.57;;;1.75;;
13163;SDS011;6647;53.688;10.746;2022-10-16T05:14:22;9.43;;;1.95;;
13163;SDS011;6647;53.688;10.746;2022-10-16T05:15:46;2.97;;;1.90;;
13163;SDS011;6647;53.688;10.746;2022-10-16T05:17:08;1.88;;;1.27;;
13163;SDS011;6647;53.688;10.746;2022-10-16T05:18:29;8.85;;;2.28;;
13163;SDS011;6647;53.688;10.746;2022-10-16T05:19:50;2.50;;;1.38;;
13163;SDS011;6647;53.688;10.746;2022-10-16T05:21:11;4.47;;;1.80;;
13163;SDS011;6647;53.688;10.746;2022-10-16T05:22:32;1.83;;;1.48;;
13163;SDS011;6647;53.688;10.746;2022-10-16T05:23:53;3.15;;;1.83;;
13163;SDS011;6647;53.688;10.746;2022-10-16T05:25:15;5.38;;;1.95;;
13163;SDS011;6647;53.688;10.746;2022-10-16T05:26:36;4.70;;;1.48;;
13163;SDS011;6647;53.688;10.746;2022-10-16T05:27:57;2.95;;;1.75;;
13163;SDS011;6647;53.688;10.746;2022-10-16T05:29:18;4.97;;;1.70;;
13163;SDS011;6647;53.688;10.746;2022-10-16T05:30:39;2.22;;;1.58;;
13163;SDS011;6647;53.688;10.746;2022-10-16T05:32:00;3.55;;;1.52;;
13163;SDS011;6647;53.688;10.746;2022-10-16T05:33:21;5.90;;;1.20;;
13163;SDS011;6647;53.688;10.746;2022-10-16T05:34:44;4.00;;;1.65;;
13163;SDS011;6647;53.688;10.746;2022-10-16T05:36:06;2.47;;;1.60;;
13163;SDS011;6647;53.688;10.746;2022-10-16T05:37:29;3.85;;;1.50;;
13163;SDS011;6647;53.688;10.746;2022-10-16T05:38:50;5.28;;;1.50;;
13163;SDS011;6647;53.688;10.746;2022-10-16T05:40:11;3.47;;;1.52;;
13163;SDS011;6647;53.688;10.746;2022-10-16T05:41:33;3.38;;;1.50;;
13163;SDS011;6647;53.688;10.746;2022-10-16T05:42:54;2.90;;;1.58;;
13163;SDS011;6647;53.688;10.746;2022-10-16T05:44:16;8.82;;;1.85;;
13163;SDS011;6647;53.688;10.746;2022-10-16T05:45:36;3.85;;;1.63;;
13163;SDS011;6647;53.688;10.746;2022-10-16T05:46:57;2.20;;;1.67;;
13163;SDS011;6647;53.688;10.746;2022-10-16T05:48:18;5.15;;;1.98;;
13163;SDS011;6647;53.688;10.746;2022-10-16T05:49:39;2.55;;;1.55;;
13163;SDS011;6647;53.688;10.746;2022-10-16T05:51:04;3.85;;;1.52;;
13163;SDS011;6647;53.688;10.746;2022-10-16T05:52:27;6.00;;;1.90;;
13163;SDS011;6647;53.688;10.746;2022-10-16T05:53:48;5.15;;;1.75;;
13163;SDS011;6647;53.688;10.746;2022-10-16T05:55:09;5.53;;;1.90;;
13163;SDS011;6647;53.688;10.746;2022-10-16T05:56:30;3.78;;;2.03;;
13163;SDS011;6647;53.688;10.746;2022-10-16T05:57:53;8.82;;;2.00;;
13163;SDS011;6647;53.688;10.746;2022-10-16T05:59:14;3.47;;;1.40;;
13163;SDS011;6647;53.688;10.746;2022-10-16T06:00:35;3.53;;;2.00;;
13163;SDS011;6647;53.688;10.746;2022-10-16T06:01:56;5.53;;;1.80;;
13163;SDS011;6647;53.688;10.746;2022-10-16T06:03:17;7.88;;;1.70;;
13163;SDS011;6647;53.688;10.746;2022-10-16T06:04:38;3.22;;;2.20;;
13163;SDS011;6647;53.688;10.746;2022-10-16T06:05:59;4.07;;;1.90;;
13163;SDS011;6647;53.688;10.746;2022-10-16T06:07:27;3.13;;;1.48;;
13163;SDS011;6647;53.688;10.746;2022-10-16T06:08:48;5.90;;;1.90;;
13163;SDS011;6647;53.688;10.746;2022-10-16T06:10:09;3.80;;;1.80;;
13163;SDS011;6647;53.688;10.746;2022-10-16T06:11:31;6.88;;;1.95;;
13163;SDS011;6647;53.688;10.746;2022-10-16T06:12:52;7.00;;;2.08;;
13163;SDS011;6647;53.688;10.746;2022-10-16T06:14:13;5.43;;;1.65;;
13163;SDS011;6647;53.688;10.746;2022-10-16T06:15:34;4.97;;;1.33;;
13163;SDS011;6647;53.688;10.746;2022-10-16T06:16:55;4.95;;;1.85;;
13163;SDS011;6647;53.688;10.746;2022-10-16T06:18:16;3.38;;;2.15;;
13163;SDS011;6647;53.688;10.746;2022-10-16T06:19:37;4.60;;;1.52;;
13163;SDS011;6647;53.688;10.746;2022-10-16T06:20:58;4.28;;;1.52;;
13163;SDS011;6647;53.688;10.746;2022-10-16T06:22:19;3.05;;;1.88;;
13163;SDS011;6647;53.688;10.746;2022-10-16T06:23:40;3.60;;;1.58;;
13163;SDS011;6647;53.688;10.746;2022-10-16T06:25:01;2.90;;;1.65;;
13163;SDS011;6647;53.688;10.746;2022-10-16T06:26:22;4.28;;;1.85;;
13163;SDS011;6647;53.688;10.746;2022-10-16T06:27:45;4.57;;;2.03;;
13163;SDS011;6647;53.688;10.746;2022-10-16T06:29:06;6.88;;;1.98;;
13163;SDS011;6647;53.688;10.746;2022-10-16T06:30:27;4.40;;;1.55;;
13163;SDS011;6647;53.688;10.746;2022-10-16T06:31:47;2.83;;;1.60;;
13163;SDS011;6647;53.688;10.746;2022-10-16T06:33:09;4.50;;;2.00;;
13163;SDS011;6647;53.688;10.746;2022-10-16T06:34:30;3.50;;;1.50;;
13163;SDS011;6647;53.688;10.746;2022-10-16T06:35:51;2.72;;;1.85;;
13163;SDS011;6647;53.688;10.746;2022-10-16T06:37:12;1.73;;;1.60;;
13163;SDS011;6647;53.688;10.746;2022-10-16T06:38:33;2.75;;;1.60;;
13163;SDS011;6647;53.688;10.746;2022-10-16T06:39:54;8.65;;;1.55;;
13163;SDS011;6647;53.688;10.746;2022-10-16T06:41:17;4.32;;;1.58;;
13163;SDS011;6647;53.688;10.746;2022-10-16T06:42:40;3.22;;;1.85;;
13163;SDS011;6647;53.688;10.746;2022-10-16T06:44:01;3.35;;;1.85;;
13163;SDS011;6647;53.688;10.746;2022-10-16T06:45:26;4.28;;;1.70;;
13163;SDS011;6647;53.688;10.746;2022-10-16T06:46:47;2.95;;;1.25;;
13163;SDS011;6647;53.688;10.746;2022-10-16T06:48:08;9.55;;;2.13;;
13163;SDS011;6647;53.688;10.746;2022-10-16T06:49:29;6.35;;;2.03;;
13163;SDS011;6647;53.688;10.746;2022-10-16T06:52:30;2.55;;;1.52;;
13163;SDS011;6647;53.688;10.746;2022-10-16T06:53:52;4.05;;;2.17;;
13163;SDS011;6647;53.688;10.746;2022-10-16T06:55:14;3.72;;;1.83;;
13163;SDS011;6647;53.688;10.746;2022-10-16T06:56:35;10.52;;;2.22;;
13163;SDS011;6647;53.688;10.746;2022-10-16T06:57:56;2.83;;;1.60;;
13163;SDS011;6647;53.688;10.746;2022-10-16T06:59:17;4.20;;;1.50;;
13163;SDS011;6647;53.688;10.746;2022-10-16T07:00:38;4.65;;;1.65;;
13163;SDS011;6647;53.688;10.746;2022-10-16T07:01:58;6.45;;;2.38;;
13163;SDS011;6647;53.688;10.746;2022-10-16T07:03:19;3.42;;;1.88;;
13163;SDS011;6647;53.688;10.746;2022-10-16T07:04:40;5.32;;;1.90;;
13163;SDS011;6647;53.688;10.746;2022-10-16T07:06:02;2.17;;;1.75;;
13163;SDS011;6647;53.688;10.746;2022-10-16T07:07:23;10.13;;;1.92;;
13163;SDS011;6647;53.688;10.746;2022-10-16T07:08:46;5.75;;;2.30;;
13163;SDS011;6647;53.688;10.746;2022-10-16T07:10:08;9.68;;;2.10;;
13163;SDS011;6647;53.688;10.746;2022-10-16T07:11:29;6.50;;;1.85;;
13163;SDS011;6647;53.688;10.746;2022-10-16T07:12:49;3.25;;;1.60;;
13163;SDS011;6647;53.688;10.746;2022-10-16T07:14:17;3.83;;;2.17;;
13163;SDS011;6647;53.688;10.746;2022-10-16T07:15:40;10.90;;;2.05;;
13163;SDS011;6647;53.688;10.746;2022-10-16T07:17:02;4.30;;;2.30;;
13163;SDS011;6647;53.688;10.746;2022-10-16T07:18:23;9.18;;;2.50;;
13163;SDS011;6647;53.688;10.746;2022-10-16T07:19:46;9.55;;;1.92;;
13163;SDS011;6647;53.688;10.746;2022-10-16T07:21:11;2.28;;;1.98;;
13163;SDS011;6647;53.688;10.746;2022-10-16T07:22:34;2.53;;;2.15;;
13163;SDS011;6647;53.688;10.746;2022-10-16T07:23:56;3.40;;;2.33;;
13163;SDS011;6647;53.688;10.746;2022-10-16T07:25:18;4.30;;;2.00;;
13163;SDS011;6647;53.688;10.746;2022-10-16T07:26:39;6.07;;;2.42;;
13163;SDS011;6647;53.688;10.746;2022-10-16T07:28:01;4.40;;;2.40;;
13163;SDS011;6647;53.688;10.746;2022-10-16T07:29:22;4.18;;;3.33;;
13163;SDS011;6647;53.688;10.746;2022-10-16T07:30:43;5.03;;;1.90;;
13163;SDS011;6647;53.688;10.746;2022-10-16T07:32:04;4.43;;;2.25;;
13163;SDS011;6647;53.688;10.746;2022-10-16T07:33:24;6.05;;;2.00;;
13163;SDS011;6647;53.688;10.746;2022-10-16T07:34:45;9.55;;;2.40;;
13163;SDS011;6647;53.688;10.746;2022-10-16T07:36:06;3.72;;;1.85;;
13163;SDS011;6647;53.688;10.746;2022-10-16T07:37:27;7.65;;;2.65;;
13163;SDS011;6647;53.688;10.746;2022-10-16T07:38:48;13.68;;;2.70;;
13163;SDS011;6647;53.688;10.746;2022-10-16T07:40:09;5.40;;;2.17;;
13163;SDS011;6647;53.688;10.746;2022-10-16T07:41:30;3.58;;;2.55;;
13163;SDS011;6647;53.688;10.746;2022-10-16T07:42:53;7.90;;;2.40;;
13163;SDS011;6647;53.688;10.746;2022-10-16T07:44:15;6.43;;;1.85;;
13163;SDS011;6647;53.688;10.746;2022-10-16T07:45:36;5.00;;;2.00;;
13163;SDS011;6647;53.688;10.746;2022-10-16T07:46:58;3.58;;;2.10;;
13163;SDS011;6647;53.688;10.746;2022-10-16T07:48:19;3.05;;;2.53;;
13163;SDS011;6647;53.688;10.746;2022-10-16T07:49:40;4.35;;;2.03;;
13163;SDS011;6647;53.688;10.746;2022-10-16T07:51:01;4.32;;;2.10;;
13163;SDS011;6647;53.688;10.746;2022-10-16T07:52:24;5.53;;;2.08;;
13163;SDS011;6647;53.688;10.746;2022-10-16T07:53:45;5.72;;;2.58;;
13163;SDS011;6647;53.688;10.746;2022-10-16T07:55:07;7.55;;;2.47;;
13163;SDS011;6647;53.688;10.746;2022-10-16T07:56:28;5.65;;;2.78;;
13163;SDS011;6647;53.688;10.746;2022-10-16T07:57:51;5.45;;;2.30;;
13163;SDS011;6647;53.688;10.746;2022-10-16T07:59:12;8.48;;;2.65;;
13163;SDS011;6647;53.688;10.746;2022-10-16T08:00:33;5.70;;;2.67;;
13163;SDS011;6647;53.688;10.746;2022-10-16T08:01:54;5.30;;;2.22;;
13163;SDS011;6647;53.688;10.746;2022-10-16T08:03:15;3.35;;;2.38;;
13163;SDS011;6647;53.688;10.746;2022-10-16T08:04:36;4.20;;;2.00;;
13163;SDS011;6647;53.688;10.746;2022-10-16T08:05:57;2.55;;;2.28;;
13163;SDS011;6647;53.688;10.746;2022-10-16T08:07:18;5.70;;;3.08;;
13163;SDS011;6647;53.688;10.746;2022-10-16T08:08:40;4.18;;;2.10;;
13163;SDS011;6647;53.688;10.746;2022-10-16T08:10:01;3.03;;;2.20;;
13163;SDS011;6647;53.688;10.746;2022-10-16T08:11:22;5.15;;;2.70;;
13163;SDS011;6647;53.688;10.746;2022-10-16T08:12:43;11.27;;;2.85;;
13163;SDS011;6647;53.688;10.746;2022-10-16T08:14:04;5.32;;;2.47;;
13163;SDS011;6647;53.688;10.746;2022-10-16T08:15:25;4.13;;;2.58;;
13163;SDS011;6647;53.688;10.746;2022-10-16T08:16:46;4.20;;;2.03;;
13163;SDS011;6647;53.688;10.746;2022-10-16T08:18:08;7.05;;;2.20;;
13163;SDS011;6647;53.688;10.746;2022-10-16T08:19:30;6.28;;;2.33;;
13163;SDS011;6647;53.688;10.746;2022-10-16T08:20:55;7.80;;;2.10;;
13163;SDS011;6647;53.688;10.746;2022-10-16T08:22:17;3.65;;;2.38;;
13163;SDS011;6647;53.688;10.746;2022-10-16T08:23:38;5.78;;;2.67;;
13163;SDS011;6647;53.688;10.746;2022-10-16T08:24:59;7.78;;;2.30;;
13163;SDS011;6647;53.688;10.746;2022-10-16T08:26:20;3.42;;;2.03;;
13163;SDS011;6647;53.688;10.746;2022-10-16T08:27:41;2.10;;;1.90;;
13163;SDS011;6647;53.688;10.746;2022-10-16T08:29:01;6.05;;;2.42;;
13163;SDS011;6647;53.688;10.746;2022-10-16T08:30:23;3.63;;;2.20;;
13163;SDS011;6647;53.688;10.746;2022-10-16T08:31:44;3.58;;;2.30;;
13163;SDS011;6647;53.688;10.746;2022-10-16T08:33:05;3.03;;;2.30;;